Time;durP1;ratioP1;P1;durP2;ratioP2;P2;SDS_P1;SDS_P2;PMS_P1;PMS_P2;Temp;Humidity;BMP_temperature;BMP_pressure;BME280_temperature;BME280_humidity;BME280_pressure;Samples;Min_cycle;Max_cycle;Signal;HPM_P1;HPM_P2
2020/12/27 00:02:08;;;;;;;26.97;13.03;;;1.50;76.40;;;;;;4881282;28;96931;-74
2020/12/27 00:04:33;;;;;;;28.87;13.90;;;1.40;76.10;;;;;;4880820;28;97368;-75
2020/12/27 00:07:03;;;;;;;27.67;12.40;;;1.40;76.40;;;;;;4882966;28;91898;-74
2020/12/27 00:09:29;;;;;;;22.53;10.87;;;1.40;76.10;;;;;;4880707;28;92185;-75
2020/12/27 00:11:55;;;;;;;20.33;9.87;;;1.40;76.30;;;;;;4866263;28;93693;-74
2020/12/27 00:14:21;;;;;;;22.53;9.70;;;1.40;76.00;;;;;;4897894;28;95865;-74
2020/12/27 00:16:47;;;;;;;20.40;9.90;;;1.40;76.00;;;;;;4883061;28;92079;-74
2020/12/27 00:19:13;;;;;;;21.43;10.50;;;1.40;76.10;;;;;;4884211;28;91478;-74
2020/12/27 00:21:39;;;;;;;25.67;10.73;;;1.40;76.50;;;;;;4898300;28;96196;-74
2020/12/27 00:24:05;;;;;;;21.33;10.93;;;1.30;76.70;;;;;;4866938;28;92986;-74
2020/12/27 00:26:31;;;;;;;24.30;11.17;;;1.30;76.90;;;;;;4883908;28;93244;-75
2020/12/27 00:28:56;;;;;;;22.87;10.57;;;1.30;77.20;;;;;;4850098;28;92174;-75
2020/12/27 00:31:22;;;;;;;23.30;10.77;;;1.30;77.20;;;;;;4879979;28;96516;-74
2020/12/27 00:33:48;;;;;;;23.80;9.60;;;1.30;76.90;;;;;;4865493;28;96114;-75
2020/12/27 00:36:18;;;;;;;18.13;8.77;;;1.30;76.80;;;;;;4881495;28;93511;-75
2020/12/27 00:38:44;;;;;;;19.80;9.57;;;1.30;76.60;;;;;;4897374;28;92140;-75
2020/12/27 00:41:10;;;;;;;18.93;8.80;;;1.30;76.80;;;;;;4897775;28;96245;-74
2020/12/27 00:43:35;;;;;;;18.17;8.57;;;1.30;76.80;;;;;;4882827;28;92545;-74
2020/12/27 00:46:01;;;;;;;16.83;8.07;;;1.30;77.00;;;;;;4866528;28;92009;-74
2020/12/27 00:48:27;;;;;;;20.30;9.13;;;1.30;76.90;;;;;;4881372;28;92180;-74
2020/12/27 00:50:53;;;;;;;16.13;9.03;;;1.30;76.80;;;;;;4864219;28;97475;-74
2020/12/27 00:53:19;;;;;;;15.70;9.00;;;1.30;76.90;;;;;;4866012;28;93977;-75
2020/12/27 00:55:45;;;;;;;13.00;7.33;;;1.30;76.80;;;;;;4881006;28;92033;-74
2020/12/27 00:58:10;;;;;;;16.50;8.20;;;1.30;76.80;;;;;;4883179;28;91886;-74
2020/12/27 01:00:37;;;;;;;17.90;9.07;;;1.30;76.90;;;;;;4896147;28;96752;-74
2020/12/27 01:03:03;;;;;;;16.30;8.67;;;1.20;77.30;;;;;;4865594;28;96110;-74
2020/12/27 01:05:47;;;;;;;15.40;9.00;;;1.20;77.30;;;;;;4882895;28;91847;-74
2020/12/27 01:08:13;;;;;;;15.73;7.63;;;1.20;77.20;;;;;;4882002;28;91454;-75
2020/12/27 01:10:39;;;;;;;16.47;7.83;;;1.20;77.20;;;;;;4849355;28;96472;-74
2020/12/27 01:13:05;;;;;;;16.63;8.40;;;1.30;77.00;;;;;;4849855;28;96864;-74
2020/12/27 01:15:31;;;;;;;13.23;7.87;;;1.20;77.00;;;;;;4880526;28;92927;-74
2020/12/27 01:18:08;;;;;;;15.20;7.63;;;1.20;76.90;;;;;;4865808;28;92294;-74
2020/12/27 01:20:39;;;;;;;15.07;7.60;;;1.20;77.00;;;;;;4864735;28;96553;-75
2020/12/27 01:23:06;;;;;;;14.90;7.23;;;1.20;77.20;;;;;;4897380;28;96334;-75
2020/12/27 01:25:36;;;;;;;19.27;8.57;;;1.20;77.60;;;;;;4884601;28;91801;-75
2020/12/27 01:28:03;;;;;;;17.00;8.53;;;1.10;77.80;;;;;;4850977;28;92124;-74
2020/12/27 01:30:29;;;;;;;14.93;8.37;;;1.10;77.90;;;;;;4881761;28;93254;-74
2020/12/27 01:33:01;;;;;;;20.33;8.73;;;1.10;77.70;;;;;;4896907;28;97125;-74
2020/12/27 01:35:28;;;;;;;17.23;8.63;;;1.10;77.80;;;;;;4864688;28;91919;-74
2020/12/27 01:37:54;;;;;;;19.23;8.30;;;1.10;77.90;;;;;;4865252;28;92210;-74
2020/12/27 01:40:20;;;;;;;16.03;8.17;;;1.10;77.70;;;;;;4896042;28;97767;-75
2020/12/27 01:42:58;;;;;;;20.03;8.53;;;1.10;77.70;;;;;;4881293;28;93900;-74
2020/12/27 01:45:26;;;;;;;17.43;8.87;;;1.10;78.10;;;;;;4865332;28;92067;-74
2020/12/27 01:48:11;;;;;;;16.63;7.70;;;1.00;77.90;;;;;;4881173;28;92107;-74
2020/12/27 01:50:37;;;;;;;15.07;7.83;;;1.00;78.00;;;;;;4848287;28;96426;-74
2020/12/27 01:53:04;;;;;;;13.97;7.13;;;1.10;77.80;;;;;;4864769;28;93413;-74
2020/12/27 01:55:37;;;;;;;13.20;7.30;;;1.00;77.80;;;;;;4880866;28;92146;-74
2020/12/27 01:58:16;;;;;;;15.43;7.30;;;1.00;77.70;;;;;;4882207;28;91488;-75
2020/12/27 02:00:54;;;;;;;11.17;6.53;;;1.00;77.80;;;;;;4854005;28;97603;-75
2020/12/27 02:03:54;;;;;;;12.90;6.70;;;1.00;77.80;;;;;;4866606;28;96513;-74
2020/12/27 02:06:40;;;;;;;13.35;7.45;;;1.10;77.90;;;;;;4863884;28;93066;-74
2020/12/27 02:09:18;;;;;;;12.40;6.27;;;1.10;77.90;;;;;;4850813;28;92004;-75
2020/12/27 02:12:24;;;;;;;10.93;6.20;;;1.10;77.90;;;;;;4880172;28;95997;-75
2020/12/27 02:14:53;;;;;;;12.67;6.37;;;1.10;78.60;;;;;;4858736;28;96329;-76
2020/12/27 02:17:23;;;;;;;12.10;6.70;;;1.00;77.90;;;;;;4880590;28;92547;-75
2020/12/27 02:20:00;;;;;;;13.57;6.40;;;1.00;78.20;;;;;;4896554;28;91968;-74
2020/12/27 02:22:40;;;;;;;14.80;6.80;;;1.00;78.30;;;;;;4849412;28;96355;-74
2020/12/27 02:25:32;;;;;;;9.87;5.80;;;1.00;78.50;;;;;;4866564;28;92355;-74
2020/12/27 02:28:20;;;;;;;13.70;6.67;;;1.00;78.50;;;;;;4896515;28;92202;-75
2020/12/27 02:30:46;;;;;;;15.27;7.10;;;0.90;78.60;;;;;;4895534;28;92953;-74
2020/12/27 02:33:12;;;;;;;11.07;6.50;;;0.90;78.50;;;;;;4863466;28;94722;-75
2020/12/27 02:35:39;;;;;;;13.10;6.37;;;0.90;78.80;;;;;;4847817;28;97362;-74
2020/12/27 02:38:07;;;;;;;13.67;6.33;;;0.90;78.60;;;;;;4864788;28;92132;-74
2020/12/27 02:40:35;;;;;;;13.33;6.00;;;1.00;78.20;;;;;;4879152;28;92168;-74
2020/12/27 02:43:19;;;;;;;12.07;6.17;;;1.00;78.00;;;;;;4881796;28;92307;-75
2020/12/27 02:45:49;;;;;;;14.27;6.83;;;0.90;78.00;;;;;;4879209;28;96337;-75
2020/12/27 02:48:34;;;;;;;10.50;5.93;;;0.90;78.10;;;;;;4877061;28;92081;-74
2020/12/27 02:51:03;;;;;;;11.27;5.30;;;0.90;78.30;;;;;;4880515;28;91543;-74
2020/12/27 02:53:29;;;;;;;9.53;5.17;;;0.90;78.70;;;;;;4864109;28;93413;-74
2020/12/27 02:55:55;;;;;;;14.63;5.80;;;0.90;78.80;;;;;;4879253;28;96538;-74
2020/12/27 02:58:22;;;;;;;13.47;6.23;;;0.80;78.70;;;;;;4879666;28;93050;-75
2020/12/27 03:00:51;;;;;;;11.43;6.57;;;0.90;78.60;;;;;;4864175;28;92631;-74
2020/12/27 03:03:25;;;;;;;12.63;6.23;;;0.90;78.60;;;;;;4891984;28;93264;-75
2020/12/27 03:06:04;;;;;;;10.90;5.63;;;0.90;79.30;;;;;;4879835;28;95798;-75
2020/12/27 03:08:30;;;;;;;11.23;6.17;;;0.90;78.50;;;;;;4879952;28;91912;-73
2020/12/27 03:11:12;;;;;;;;;;;0.90;78.50;;;;;;4880384;28;92407;-75
2020/12/27 03:13:39;;;;;;;10.07;5.73;;;0.90;78.50;;;;;;4880296;28;93278;-74
2020/12/27 03:16:06;;;;;;;8.03;5.23;;;0.80;78.60;;;;;;4883126;28;95743;-74
2020/12/27 03:18:38;;;;;;;10.10;5.47;;;0.80;78.80;;;;;;4898514;28;91997;-74
2020/12/27 03:21:29;;;;;;;10.03;4.80;;;0.80;79.20;;;;;;4867501;28;93050;-75
2020/12/27 03:23:55;;;;;;;8.57;4.73;;;0.80;79.10;;;;;;4881722;28;97038;-75
2020/12/27 03:26:28;;;;;;;10.40;5.40;;;0.70;79.00;;;;;;4882891;28;97519;-75
2020/12/27 03:28:54;;;;;;;12.03;5.67;;;0.70;79.00;;;;;;4883668;28;92050;-75
2020/12/27 03:31:20;;;;;;;11.30;5.13;;;0.70;78.50;;;;;;4884421;28;92068;-75
2020/12/27 03:33:47;;;;;;;11.17;5.03;;;0.80;78.50;;;;;;4866377;28;96478;-75
2020/12/27 03:36:16;;;;;;;10.40;5.47;;;0.80;78.50;;;;;;4851733;28;95735;-75
2020/12/27 03:39:02;;;;;;;9.80;5.27;;;0.80;78.40;;;;;;4883310;28;91985;-74
2020/12/27 03:41:42;;;;;;;10.37;5.27;;;0.70;78.40;;;;;;4887099;28;91356;-74
2020/12/27 03:44:18;;;;;;;10.63;5.77;;;0.70;78.50;;;;;;4868530;28;95010;-74
2020/12/27 03:47:02;;;;;;;11.30;6.10;;;0.70;78.50;;;;;;4884426;28;92438;-75
2020/12/27 03:49:54;;;;;;;8.47;4.87;;;0.70;78.20;;;;;;4861025;28;92917;-74
2020/12/27 03:52:34;;;;;;;8.70;4.80;;;0.70;77.50;;;;;;4868682;28;92412;-74
2020/12/27 03:55:32;;;;;;;8.23;4.47;;;0.70;76.90;;;;;;4871552;28;92561;-74
2020/12/27 03:58:21;;;;;;;8.20;4.47;;;0.70;76.60;;;;;;4847024;28;92255;-74
2020/12/27 04:00:51;;;;;;;9.20;4.33;;;0.70;76.40;;;;;;4866210;28;92507;-75
2020/12/27 04:03:24;;;;;;;12.67;5.63;;;0.70;76.10;;;;;;4852348;28;92105;-75
2020/12/27 04:05:52;;;;;;;6.17;3.90;;;0.70;75.60;;;;;;4881463;28;96211;-74
2020/12/27 04:08:23;;;;;;;7.13;4.13;;;0.70;75.30;;;;;;4867556;28;95913;-74
2020/12/27 04:10:50;;;;;;;10.30;5.47;;;0.80;75.10;;;;;;4866128;28;92212;-74
2020/12/27 04:13:16;;;;;;;9.40;4.27;;;0.70;75.00;;;;;;4898320;28;92422;-75
2020/12/27 04:15:48;;;;;;;7.43;3.95;;;0.80;74.50;;;;;;4880130;28;97755;-74
2020/12/27 04:18:19;;;;;;;8.68;3.70;;;0.80;74.50;;;;;;4881810;28;97767;-74
2020/12/27 04:21:14;;;;;;;8.80;4.13;;;0.80;74.20;;;;;;4883490;28;92205;-74
2020/12/27 04:23:44;;;;;;;9.87;4.33;;;0.80;73.90;;;;;;4850566;28;92170;-74
2020/12/27 04:26:14;;;;;;;7.00;3.90;;;0.80;73.70;;;;;;4881932;28;96726;-74
2020/12/27 04:28:41;;;;;;;5.60;3.30;;;0.80;73.30;;;;;;4881227;28;95328;-74
2020/12/27 04:31:18;;;;;;;6.77;3.60;;;0.80;73.10;;;;;;4866401;28;91941;-74
2020/12/27 04:33:48;;;;;;;6.67;3.50;;;0.80;73.00;;;;;;4881738;28;91358;-74
2020/12/27 04:36:23;;;;;;;5.80;3.73;;;0.80;72.50;;;;;;4881816;28;94823;-75
2020/12/27 04:38:51;;;;;;;8.73;3.80;;;0.90;72.50;;;;;;4865154;28;96665;-74
2020/12/27 04:41:18;;;;;;;7.47;3.90;;;0.80;72.20;;;;;;4897385;28;92865;-74
2020/12/27 04:43:48;;;;;;;6.30;3.73;;;0.80;72.20;;;;;;4881054;28;92213;-74
2020/12/27 04:46:16;;;;;;;6.90;3.40;;;0.80;72.50;;;;;;4897380;28;93631;-74
2020/12/27 04:48:51;;;;;;;7.37;3.57;;;0.80;72.50;;;;;;4865176;28;95559;-74
2020/12/27 04:51:23;;;;;;;6.37;3.33;;;0.80;72.50;;;;;;4851231;28;91987;-74
2020/12/27 04:53:59;;;;;;;9.63;4.30;;;0.80;72.10;;;;;;4881199;28;92398;-74
2020/12/27 04:56:41;;;;;;;6.60;3.23;;;0.80;72.40;;;;;;4865737;28;93983;-74
2020/12/27 04:59:15;;;;;;;5.53;3.20;;;0.80;72.40;;;;;;4851241;28;96549;-74
2020/12/27 05:01:43;;;;;;;5.93;3.47;;;0.80;72.20;;;;;;4881533;28;92032;-74
2020/12/27 05:04:23;;;;;;;10.30;3.40;;;0.80;72.20;;;;;;4898021;28;92780;-75
2020/12/27 05:06:59;;;;;;;10.20;3.63;;;0.80;71.70;;;;;;4896420;28;97645;-74
2020/12/27 05:09:47;;;;;;;8.03;3.43;;;0.80;72.00;;;;;;4881029;28;94948;-74
2020/12/27 05:12:13;;;;;;;6.10;3.07;;;0.70;72.00;;;;;;4881975;28;91986;-75
2020/12/27 05:14:39;;;;;;;7.80;3.83;;;0.70;71.90;;;;;;4850110;28;92543;-74
2020/12/27 05:17:06;;;;;;;6.67;3.37;;;0.80;71.70;;;;;;4865125;28;95404;-74
2020/12/27 05:19:46;;;;;;;6.37;3.03;;;0.70;71.60;;;;;;4864682;28;96736;-74
2020/12/27 05:22:12;;;;;;;7.30;3.20;;;0.80;71.20;;;;;;4884826;28;92087;-75
2020/12/27 05:24:54;;;;;;;;;;;0.70;71.30;;;;;;4888515;28;91496;-75
2020/12/27 05:27:45;;;;;;;6.37;3.60;;;0.80;71.50;;;;;;4884056;28;95777;-74
2020/12/27 05:30:44;;;;;;;7.63;3.70;;;0.80;71.40;;;;;;4839038;28;92159;-74
2020/12/27 05:33:27;;;;;;;9.00;4.00;;;0.70;71.70;;;;;;4882303;28;92744;-75
2020/12/27 05:36:26;;;;;;;9.07;4.53;;;0.70;71.60;;;;;;4849397;28;92095;-74
2020/12/27 05:38:59;;;;;;;8.00;3.90;;;0.70;71.40;;;;;;4864557;28;94873;-75
2020/12/27 05:41:42;;;;;;;9.07;4.40;;;0.70;71.70;;;;;;4880738;28;95472;-73
2020/12/27 05:44:18;;;;;;;8.57;4.13;;;0.70;71.80;;;;;;4881435;28;91897;-74
2020/12/27 05:46:45;;;;;;;9.23;4.70;;;0.70;71.50;;;;;;4849001;28;92353;-74
2020/12/27 05:49:16;;;;;;;10.07;4.77;;;0.60;71.20;;;;;;4864990;28;96171;-74
2020/12/27 05:51:54;;;;;;;9.80;4.37;;;0.60;71.40;;;;;;4896618;28;94768;-73
2020/12/27 05:54:33;;;;;;;9.77;4.63;;;0.60;71.60;;;;;;4881245;28;92144;-74
2020/12/27 05:57:04;;;;;;;11.70;5.03;;;0.60;71.60;;;;;;4880571;28;92089;-74
2020/12/27 05:59:34;;;;;;;8.87;5.00;;;0.50;71.30;;;;;;4866954;28;97853;-74
2020/12/27 06:02:06;;;;;;;13.20;5.23;;;0.60;71.10;;;;;;4880766;28;96585;-74
2020/12/27 06:05:05;;;;;;;7.60;4.90;;;0.60;71.20;;;;;;4896733;28;91984;-74
2020/12/27 06:07:37;;;;;;;9.30;4.80;;;0.60;71.10;;;;;;4864949;28;92137;-74
2020/12/27 06:10:05;;;;;;;11.30;4.90;;;0.50;70.90;;;;;;4863954;28;96958;-74
2020/12/27 06:13:02;;;;;;;7.80;4.17;;;0.50;70.90;;;;;;4849851;28;96312;-74
2020/12/27 06:15:31;;;;;;;8.88;3.78;;;0.50;70.60;;;;;;4876864;28;92091;-74
2020/12/27 06:18:17;;;;;;;7.73;3.67;;;0.50;70.20;;;;;;4882012;28;91248;-74
2020/12/27 06:21:10;;;;;;;7.67;3.30;;;0.60;69.80;;;;;;4862200;28;92655;-74
2020/12/27 06:23:46;;;;;;;6.77;2.90;;;0.60;69.50;;;;;;4877362;28;96165;-74
2020/12/27 06:26:12;;;;;;;6.75;2.70;;;0.60;69.30;;;;;;4861181;29;92988;-75
2020/12/27 06:28:51;;;;;;;6.33;2.90;;;0.60;69.00;;;;;;4845261;29;92211;-74
2020/12/27 06:31:25;;;;;;;6.13;2.60;;;0.60;68.70;;;;;;4876736;28;96686;-74
2020/12/27 06:34:09;;;;;;;5.40;2.17;;;0.60;68.00;;;;;;4862142;29;91938;-74
2020/12/27 06:36:51;;;;;;;5.53;2.40;;;0.60;67.70;;;;;;4875339;28;91943;-74
2020/12/27 06:39:25;;;;;;;4.50;1.93;;;0.60;67.40;;;;;;4845920;29;92038;-74
2020/12/27 06:42:16;;;;;;;3.95;2.28;;;0.70;66.80;;;;;;4829865;29;97255;-74
2020/12/27 06:45:30;;;;;;;6.23;2.20;;;0.70;66.60;;;;;;4860506;29;93892;-74
2020/12/27 06:48:35;;;;;;;7.70;2.37;;;0.70;65.90;;;;;;4859849;29;91916;-74
2020/12/27 06:51:42;;;;;;;6.30;2.43;;;0.70;65.20;;;;;;4866545;29;91928;-74
2020/12/27 06:54:14;;;;;;;3.83;1.90;;;0.80;64.20;;;;;;4847977;29;97273;-74
2020/12/27 06:56:48;;;;;;;4.87;2.20;;;0.80;63.60;;;;;;4833754;29;96514;-74
2020/12/27 06:59:39;;;;;;;5.53;1.90;;;0.80;62.80;;;;;;4880503;28;91935;-74
2020/12/27 07:02:11;;;;;;;6.70;2.20;;;0.90;61.70;;;;;;4879560;28;92081;-74
2020/12/27 07:04:37;;;;;;;6.40;2.23;;;0.90;60.80;;;;;;4848377;29;93872;-74
2020/12/27 07:07:03;;;;;;;4.57;1.63;;;1.00;60.10;;;;;;4832210;29;96748;-75
2020/12/27 07:09:31;;;;;;;3.40;1.47;;;1.00;59.30;;;;;;4866139;29;91917;-75
2020/12/27 07:12:04;;;;;;;11.43;1.90;;;1.10;58.20;;;;;;4848530;29;91400;-74
2020/12/27 07:14:30;;;;;;;6.33;1.53;;;1.20;57.90;;;;;;4864300;29;93319;-74
2020/12/27 07:16:57;;;;;;;4.17;1.50;;;1.20;57.60;;;;;;4847465;29;96282;-74
2020/12/27 07:19:25;;;;;;;3.97;1.60;;;1.30;56.70;;;;;;4865068;29;92984;-74
2020/12/27 07:21:54;;;;;;;25.70;8.20;;;1.30;56.40;;;;;;4864010;29;92380;-74
2020/12/27 07:24:22;;;;;;;16.20;5.90;;;1.40;56.30;;;;;;4865451;29;92791;-74
2020/12/27 07:26:48;;;;;;;28.33;12.70;;;1.40;56.20;;;;;;4879857;28;92982;-75
2020/12/27 07:29:17;;;;;;;6.80;3.50;;;1.50;56.20;;;;;;4864385;29;91984;-74
2020/12/27 07:31:44;;;;;;;8.17;4.13;;;1.50;55.40;;;;;;4847987;29;92200;-74
2020/12/27 07:34:12;;;;;;;10.53;4.83;;;1.60;55.50;;;;;;4864589;29;93328;-74
2020/12/27 07:36:38;;;;;;;7.57;3.53;;;1.60;55.30;;;;;;4879692;28;95238;-76
2020/12/27 07:39:08;;;;;;;7.00;3.83;;;1.70;55.30;;;;;;4865737;29;92180;-75
2020/12/27 07:41:37;;;;;;;4.57;3.00;;;1.70;55.10;;;;;;4850239;29;92569;-75
2020/12/27 07:44:13;;;;;;;11.03;4.20;;;1.80;54.60;;;;;;4864307;29;94030;-75
2020/12/27 07:46:40;;;;;;;6.17;3.40;;;1.90;54.50;;;;;;4834598;29;96834;-75
2020/12/27 07:49:09;;;;;;;10.10;5.37;;;1.90;54.70;;;;;;4880911;28;91965;-74
2020/12/27 07:51:35;;;;;;;8.90;5.20;;;2.00;54.40;;;;;;4849478;29;92210;-75
2020/12/27 07:54:05;;;;;;;10.83;3.80;;;2.10;54.10;;;;;;4864886;29;92975;-74
2020/12/27 07:56:32;;;;;;;9.27;4.17;;;2.20;53.00;;;;;;4865131;29;93060;-74
2020/12/27 07:59:00;;;;;;;24.80;8.77;;;2.30;53.00;;;;;;4879801;28;91884;-74
2020/12/27 08:01:26;;;;;;;31.17;10.47;;;2.40;52.40;;;;;;4879914;28;91396;-74
2020/12/27 08:03:54;;;;;;;18.67;7.30;;;2.40;52.50;;;;;;4863763;29;92369;-73
2020/12/27 08:06:20;;;;;;;56.63;22.40;;;2.60;52.90;;;;;;4866427;29;92792;-75
2020/12/27 08:08:47;;;;;;;12.17;6.10;;;2.70;52.80;;;;;;4866021;29;93566;-75
2020/12/27 08:11:23;;;;;;;13.90;6.93;;;2.70;52.30;;;;;;4833256;29;92883;-74
2020/12/27 08:13:54;;;;;;;12.27;5.97;;;2.80;51.50;;;;;;4866827;29;91900;-75
2020/12/27 08:16:20;;;;;;;15.00;7.73;;;2.80;51.90;;;;;;4865369;29;96877;-75
2020/12/27 08:18:46;;;;;;;12.07;4.83;;;2.90;51.90;;;;;;4850704;29;92028;-75
2020/12/27 08:21:18;;;;;;;14.73;8.17;;;3.00;51.70;;;;;;4864315;29;92337;-75
2020/12/27 08:24:00;;;;;;;9.45;5.40;;;3.00;51.80;;;;;;4833357;29;96739;-75
2020/12/27 08:26:27;;;;;;;10.10;5.68;;;3.00;52.30;;;;;;4867880;29;91528;-75
2020/12/27 08:28:52;;;;;;;8.07;4.50;;;3.00;52.40;;;;;;4867566;29;92637;-75
2020/12/27 08:31:28;;;;;;;8.63;4.40;;;3.00;52.00;;;;;;4848640;29;92336;-75
2020/12/27 08:34:24;;;;;;;13.77;5.23;;;3.10;52.10;;;;;;4881075;28;97093;-75
2020/12/27 08:36:52;;;;;;;9.73;4.30;;;3.10;51.10;;;;;;4841691;29;97028;-75
2020/12/27 08:39:40;;;;;;;17.10;7.03;;;3.30;51.10;;;;;;4849077;29;92036;-75
2020/12/27 08:42:07;;;;;;;25.03;9.90;;;3.30;50.90;;;;;;4866074;29;91820;-74
2020/12/27 08:45:07;;;;;;;24.03;10.83;;;3.30;51.40;;;;;;4866984;29;93202;-75
2020/12/27 08:47:44;;;;;;;36.33;16.90;;;3.30;52.50;;;;;;4852484;29;96799;-76
2020/12/27 08:50:35;;;;;;;28.23;12.00;;;3.40;52.50;;;;;;4868258;29;91798;-76
2020/12/27 08:53:02;;;;;;;27.17;12.23;;;3.40;52.90;;;;;;4846650;29;91325;-74
2020/12/27 08:55:30;;;;;;;17.77;8.60;;;3.40;53.40;;;;;;4878627;28;93776;-75
2020/12/27 08:58:00;;;;;;;14.13;7.13;;;3.40;53.50;;;;;;4863437;29;96032;-75
2020/12/27 09:00:33;;;;;;;19.10;7.93;;;3.40;54.80;;;;;;4847786;29;93067;-75
2020/12/27 09:03:01;;;;;;;20.77;9.93;;;3.40;55.30;;;;;;4863076;29;92139;-74
2020/12/27 09:05:32;;;;;;;22.67;10.60;;;3.30;55.80;;;;;;4831727;29;96569;-75
2020/12/27 09:07:58;;;;;;;19.67;9.27;;;3.40;57.10;;;;;;4830697;29;96583;-74
2020/12/27 09:10:25;;;;;;;13.40;6.03;;;3.50;54.30;;;;;;4862518;29;92013;-75
2020/12/27 09:13:02;;;;;;;18.10;7.00;;;3.60;53.80;;;;;;4863032;29;92102;-75
2020/12/27 09:15:42;;;;;;;21.00;10.07;;;3.50;53.90;;;;;;4863906;29;93269;-75
2020/12/27 09:18:10;;;;;;;25.17;11.13;;;3.60;53.50;;;;;;4862397;29;92487;-75
2020/12/27 09:20:38;;;;;;;17.53;8.43;;;3.70;52.60;;;;;;4846027;29;92552;-75
2020/12/27 09:23:20;;;;;;;19.10;8.40;;;3.70;53.10;;;;;;4830771;29;91914;-75
2020/12/27 09:25:46;;;;;;;;;;;3.70;51.50;;;;;;4846866;29;98441;-75
2020/12/27 09:28:18;;;;;;;15.23;7.33;;;3.80;50.80;;;;;;4878736;28;92909;-75
2020/12/27 09:30:48;;;;;;;29.77;12.90;;;3.80;51.20;;;;;;4864590;29;92048;-75
2020/12/27 09:33:20;;;;;;;36.00;15.47;;;3.80;50.80;;;;;;4861359;29;92527;-75
2020/12/27 09:35:57;;;;;;;30.57;14.13;;;4.10;52.00;;;;;;4877380;28;94828;-75
2020/12/27 09:38:28;;;;;;;17.77;9.17;;;4.30;52.70;;;;;;4862884;29;93044;-76
2020/12/27 09:41:09;;;;;;;15.33;7.20;;;4.40;51.60;;;;;;4864501;29;92695;-76
2020/12/27 09:44:02;;;;;;;17.83;7.27;;;4.30;51.70;;;;;;4848249;29;91133;-75
2020/12/27 09:46:42;;;;;;;16.43;8.40;;;4.30;51.60;;;;;;4878707;28;96739;-75
2020/12/27 09:49:31;;;;;;;16.40;7.70;;;4.40;50.90;;;;;;4863749;29;93375;-75
2020/12/27 09:52:04;;;;;;;21.37;8.63;;;4.30;51.40;;;;;;4864462;29;93234;-75
2020/12/27 09:54:31;;;;;;;18.53;9.47;;;4.40;52.00;;;;;;4862686;29;92234;-75
2020/12/27 09:56:58;;;;;;;21.03;9.23;;;4.50;51.70;;;;;;4862115;29;93607;-75
2020/12/27 09:59:24;;;;;;;23.40;10.00;;;4.60;51.90;;;;;;4861663;29;92473;-75
2020/12/27 10:01:50;;;;;;;18.43;9.67;;;4.50;53.00;;;;;;4846491;29;91870;-75
2020/12/27 10:04:16;;;;;;;23.17;10.87;;;4.40;53.10;;;;;;4861640;29;92256;-75
2020/12/27 10:06:42;;;;;;;22.63;10.63;;;4.40;53.50;;;;;;4862695;29;93827;-75
2020/12/27 10:09:07;;;;;;;23.40;10.77;;;4.40;54.20;;;;;;4829190;29;96236;-75
2020/12/27 10:11:33;;;;;;;19.90;10.03;;;4.40;54.70;;;;;;4863089;29;92008;-75
2020/12/27 10:13:59;;;;;;;22.47;10.33;;;4.60;55.00;;;;;;4862317;29;92127;-75
2020/12/27 10:16:25;;;;;;;17.17;9.13;;;4.60;55.10;;;;;;4844683;29;94268;-75
2020/12/27 10:18:51;;;;;;;19.73;9.73;;;4.70;53.70;;;;;;4861652;29;95874;-75
2020/12/27 10:21:16;;;;;;;16.83;8.60;;;4.60;53.60;;;;;;4846162;29;92283;-74
2020/12/27 10:23:42;;;;;;;17.87;9.20;;;4.60;53.20;;;;;;4878025;28;92108;-75
2020/12/27 10:26:12;;;;;;;17.63;9.13;;;4.70;52.40;;;;;;4863891;29;93431;-74
2020/12/27 10:28:38;;;;;;;18.47;9.03;;;4.70;52.20;;;;;;4863479;29;93148;-75
2020/12/27 10:31:03;;;;;;;18.20;8.83;;;4.60;52.40;;;;;;4847330;29;92012;-75
2020/12/27 10:33:29;;;;;;;17.77;9.63;;;4.60;52.10;;;;;;4831789;29;91520;-75
2020/12/27 10:35:57;;;;;;;18.03;9.73;;;4.60;52.30;;;;;;4849973;29;93175;-75
2020/12/27 10:38:23;;;;;;;15.53;9.43;;;4.70;52.20;;;;;;4863561;29;92946;-74
2020/12/27 10:40:49;;;;;;;21.93;10.63;;;4.80;52.60;;;;;;4861586;29;92734;-75
2020/12/27 10:43:14;;;;;;;19.87;9.30;;;4.70;53.10;;;;;;4876191;28;92201;-74
2020/12/27 10:45:40;;;;;;;20.53;10.43;;;4.70;53.70;;;;;;4863348;29;93137;-74
2020/12/27 10:48:06;;;;;;;18.60;9.23;;;4.60;54.10;;;;;;4844984;29;91906;-74
2020/12/27 10:50:36;;;;;;;16.80;8.60;;;4.60;53.80;;;;;;4846038;29;91963;-74
2020/12/27 10:53:01;;;;;;;16.33;8.97;;;4.50;53.60;;;;;;4863098;29;92036;-75
2020/12/27 10:55:27;;;;;;;19.27;9.13;;;4.50;53.50;;;;;;4860865;28;95157;-75
2020/12/27 10:57:53;;;;;;;15.77;8.23;;;4.50;53.10;;;;;;4861890;29;92832;-74
2020/12/27 11:00:19;;;;;;;14.73;8.37;;;4.40;53.40;;;;;;4876136;28;92138;-74
2020/12/27 11:02:45;;;;;;;15.77;8.17;;;4.30;53.40;;;;;;4846528;29;92376;-75
2020/12/27 11:05:10;;;;;;;15.20;7.77;;;4.20;53.30;;;;;;4844478;29;96361;-74
2020/12/27 11:07:36;;;;;;;16.30;8.23;;;4.10;53.70;;;;;;4845743;29;97264;-75
2020/12/27 11:10:02;;;;;;;15.40;7.87;;;4.20;53.90;;;;;;4846309;29;92390;-75
2020/12/27 11:12:28;;;;;;;19.30;9.10;;;4.20;54.50;;;;;;4844479;29;92784;-74
2020/12/27 11:14:54;;;;;;;20.13;9.97;;;4.30;54.50;;;;;;4862321;29;92597;-75
2020/12/27 11:17:20;;;;;;;18.87;8.57;;;4.60;53.30;;;;;;4860352;29;92600;-74
2020/12/27 11:19:45;;;;;;;17.90;8.63;;;4.60;52.50;;;;;;4861086;29;92621;-75
2020/12/27 11:22:12;;;;;;;18.87;9.47;;;4.60;52.70;;;;;;4845280;29;91415;-74
2020/12/27 11:24:38;;;;;;;17.93;8.47;;;4.60;52.90;;;;;;4845790;29;96496;-75
2020/12/27 11:27:03;;;;;;;17.17;8.30;;;4.60;52.00;;;;;;4876899;28;95930;-74
2020/12/27 11:29:29;;;;;;;17.47;9.00;;;4.60;51.80;;;;;;4844445;29;92863;-75
2020/12/27 11:31:55;;;;;;;21.93;10.60;;;4.70;52.20;;;;;;4862300;29;92100;-75
2020/12/27 11:34:21;;;;;;;20.63;8.47;;;4.80;52.20;;;;;;4859684;29;96158;-74
2020/12/27 11:36:49;;;;;;;19.83;10.47;;;4.70;52.40;;;;;;4865433;29;92628;-74
2020/12/27 11:39:15;;;;;;;22.23;8.67;;;4.90;52.50;;;;;;4864533;29;91911;-74
2020/12/27 11:41:41;;;;;;;19.27;9.23;;;4.80;52.20;;;;;;4848878;29;92206;-75
2020/12/27 11:44:08;;;;;;;17.40;8.20;;;4.80;52.40;;;;;;4865289;29;93594;-74
2020/12/27 11:46:34;;;;;;;17.83;8.60;;;4.80;52.80;;;;;;4848302;29;93726;-75
2020/12/27 11:49:00;;;;;;;16.93;7.97;;;4.70;52.70;;;;;;4863991;29;92866;-74
2020/12/27 11:51:26;;;;;;;15.70;7.60;;;4.60;53.40;;;;;;4864387;29;92119;-74
2020/12/27 11:53:52;;;;;;;15.87;7.80;;;4.60;53.90;;;;;;4864877;29;93636;-75
2020/12/27 11:56:20;;;;;;;18.47;7.80;;;4.60;54.30;;;;;;4847856;29;97688;-74
2020/12/27 11:58:46;;;;;;;17.40;8.40;;;4.50;53.70;;;;;;4865175;29;92217;-74
2020/12/27 12:01:12;;;;;;;21.30;9.30;;;4.50;53.50;;;;;;4866546;29;92481;-74
2020/12/27 12:03:38;;;;;;;16.70;7.37;;;4.50;53.90;;;;;;4864747;29;96723;-74
2020/12/27 12:06:04;;;;;;;18.20;8.77;;;4.40;53.60;;;;;;4865217;29;95652;-74
2020/12/27 12:08:30;;;;;;;20.37;7.80;;;4.40;53.80;;;;;;4881112;28;92015;-74
2020/12/27 12:10:56;;;;;;;17.83;7.93;;;4.40;53.10;;;;;;4866549;29;91496;-75
2020/12/27 12:13:22;;;;;;;15.30;6.40;;;4.40;52.20;;;;;;4851589;29;96435;-75
2020/12/27 12:15:48;;;;;;;20.23;7.03;;;4.40;51.40;;;;;;4870006;29;92990;-75
2020/12/27 12:18:13;;;;;;;14.57;6.37;;;4.40;51.50;;;;;;4866452;29;92911;-74
2020/12/27 12:20:42;;;;;;;15.27;5.47;;;4.40;51.00;;;;;;4863895;29;92173;-74
2020/12/27 12:23:08;;;;;;;16.60;6.57;;;4.40;50.10;;;;;;4832167;29;96413;-75
2020/12/27 12:25:35;;;;;;;14.20;6.40;;;4.40;50.10;;;;;;4847214;29;95233;-75
2020/12/27 12:28:01;;;;;;;14.70;5.77;;;4.40;50.20;;;;;;4879149;28;91843;-74
2020/12/27 12:30:26;;;;;;;14.50;6.43;;;4.40;50.20;;;;;;4847035;29;92176;-74
2020/12/27 12:32:52;;;;;;;15.93;6.90;;;4.40;50.70;;;;;;4846674;29;96923;-74
2020/12/27 12:35:18;;;;;;;11.87;6.43;;;4.40;51.40;;;;;;4864367;29;93296;-74
2020/12/27 12:37:44;;;;;;;14.07;6.07;;;4.40;52.40;;;;;;4865191;29;91901;-75
2020/12/27 12:40:10;;;;;;;14.17;7.10;;;4.30;53.00;;;;;;4863682;29;92086;-74
2020/12/27 12:42:39;;;;;;;16.77;7.63;;;4.20;53.70;;;;;;4864485;29;93719;-75
2020/12/27 12:45:06;;;;;;;10.53;5.53;;;4.30;54.00;;;;;;4865127;29;93945;-74
2020/12/27 12:47:32;;;;;;;15.60;5.90;;;4.30;54.30;;;;;;4864998;29;92399;-75
2020/12/27 12:49:58;;;;;;;14.30;7.27;;;4.10;54.90;;;;;;4849060;29;92115;-74
2020/12/27 12:52:24;;;;;;;12.33;5.93;;;4.10;55.30;;;;;;4880618;28;92891;-77
2020/12/27 12:54:50;;;;;;;10.97;5.73;;;4.10;55.20;;;;;;4883555;28;95792;-75
2020/12/27 12:57:16;;;;;;;13.43;6.20;;;4.00;55.40;;;;;;4866675;29;92122;-74
2020/12/27 12:59:41;;;;;;;22.30;10.13;;;4.10;55.80;;;;;;4863349;29;91293;-75
2020/12/27 13:02:07;;;;;;;16.77;6.67;;;4.10;55.50;;;;;;4863689;29;92650;-77
2020/12/27 13:04:33;;;;;;;15.10;6.33;;;4.20;55.20;;;;;;4846892;29;92852;-75
2020/12/27 13:06:59;;;;;;;14.00;6.97;;;4.30;55.20;;;;;;4847004;29;92875;-74
2020/12/27 13:09:25;;;;;;;12.00;6.23;;;4.30;55.20;;;;;;4847276;29;92187;-74
2020/12/27 13:11:50;;;;;;;11.23;5.40;;;4.30;55.10;;;;;;4862953;29;96218;-76
2020/12/27 13:14:16;;;;;;;11.27;5.90;;;4.20;55.20;;;;;;4864159;29;92907;-74